Time;durP1;ratioP1;P1;durP2;ratioP2;P2;SDS_P1;SDS_P2;PMS_P1;PMS_P2;Temp;Humidity;BMP_temperature;BMP_pressure;BME280_temperature;BME280_humidity;BME280_pressure;Samples;Min_cycle;Max_cycle;Signal;HPM_P1;HPM_P2
2021/11/06 00:00:43;;;;;;;17.10;14.73;;;;;;;;;;5092879;28;20189;-88
2021/11/06 00:03:28;;;;;;;14.57;12.80;;;;;;;;;;5095928;28;20228;-88
2021/11/06 00:06:14;;;;;;;16.30;13.20;;;;;;;;;;5095206;28;20660;-87
2021/11/06 00:08:59;;;;;;;15.57;13.87;;;;;;;;;;5095557;28;20714;-86
2021/11/06 00:11:45;;;;;;;18.00;13.80;;;;;;;;;;5095402;28;20188;-88
2021/11/06 00:14:30;;;;;;;15.73;13.30;;;;;;;;;;5096214;28;20193;-88
2021/11/06 00:17:15;;;;;;;21.77;13.77;;;;;;;;;;5095811;28;20189;-87
2021/11/06 00:19:59;;;;;;;14.20;12.70;;;;;;;;;;5095773;28;20189;-87
2021/11/06 00:22:46;;;;;;;17.50;12.73;;;;;;;;;;5095558;28;20205;-88
2021/11/06 00:25:31;;;;;;;16.23;13.03;;;;;;;;;;5096359;28;20274;-86
2021/11/06 00:28:16;;;;;;;14.20;12.60;;;;;;;;;;5096562;28;20186;-87
2021/11/06 00:31:01;;;;;;;14.90;12.97;;;;;;;;;;5095867;28;20188;-87
2021/11/06 00:33:46;;;;;;;14.37;12.67;;;;;;;;;;5095598;28;20653;-88
2021/11/06 00:36:31;;;;;;;14.97;13.07;;;;;;;;;;5095069;28;20194;-87
2021/11/06 00:39:17;;;;;;;17.20;12.37;;;;;;;;;;5095147;28;20265;-87
2021/11/06 00:42:03;;;;;;;16.60;12.43;;;;;;;;;;5094454;28;20370;-87
2021/11/06 00:44:48;;;;;;;16.17;11.93;;;;;;;;;;5095281;28;20185;-87
2021/11/06 00:47:33;;;;;;;16.17;12.40;;;;;;;;;;5095110;28;20319;-87
2021/11/06 00:50:18;;;;;;;13.77;12.37;;;;;;;;;;5095189;28;20221;-87
2021/11/06 00:53:04;;;;;;;15.37;12.60;;;;;;;;;;5094642;28;20696;-87
2021/11/06 00:55:51;;;;;;;17.37;12.60;;;;;;;;;;5095557;28;20185;-88
2021/11/06 00:58:36;;;;;;;16.07;12.67;;;;;;;;;;5095736;28;20189;-87
2021/11/06 01:01:21;;;;;;;16.73;12.33;;;;;;;;;;5095568;28;20193;-88
2021/11/06 01:04:06;;;;;;;14.20;12.53;;;;;;;;;;5095495;28;20212;-87
2021/11/06 01:06:52;;;;;;;15.43;12.80;;;;;;;;;;5095405;28;20235;-88
2021/11/06 01:09:37;;;;;;;17.67;12.83;;;;;;;;;;5096010;28;20232;-88
2021/11/06 01:12:23;;;;;;;13.87;12.00;;;;;;;;;;5094748;28;20204;-88
2021/11/06 01:15:10;;;;;;;14.10;12.70;;;;;;;;;;5094848;28;20212;-88
2021/11/06 01:17:55;;;;;;;13.50;12.10;;;;;;;;;;5095000;28;20668;-88
2021/11/06 01:20:40;;;;;;;16.67;13.27;;;;;;;;;;5095129;28;20566;-89
2021/11/06 01:23:26;;;;;;;15.30;12.00;;;;;;;;;;5094970;28;20217;-88
2021/11/06 01:26:11;;;;;;;13.27;11.50;;;;;;;;;;5094812;28;20592;-88
2021/11/06 01:28:57;;;;;;;16.23;12.43;;;;;;;;;;5094613;28;20320;-88
2021/11/06 01:31:42;;;;;;;13.30;11.93;;;;;;;;;;5094457;28;20193;-87
2021/11/06 01:34:27;;;;;;;15.07;12.37;;;;;;;;;;5094607;28;20189;-87
2021/11/06 01:37:12;;;;;;;13.43;11.80;;;;;;;;;;5094422;28;20215;-88
2021/11/06 01:39:58;;;;;;;15.07;12.60;;;;;;;;;;5094280;28;20575;-87
2021/11/06 01:42:43;;;;;;;17.00;11.90;;;;;;;;;;5093957;28;20209;-88
2021/11/06 01:45:30;;;;;;;17.03;12.03;;;;;;;;;;5094201;28;20184;-87
2021/11/06 01:48:15;;;;;;;17.47;12.17;;;;;;;;;;5093670;28;20223;-88
2021/11/06 01:51:00;;;;;;;16.80;12.57;;;;;;;;;;5094238;28;20298;-88
2021/11/06 01:53:46;;;;;;;13.77;12.07;;;;;;;;;;5093779;28;20188;-88
2021/11/06 01:56:32;;;;;;;13.57;11.53;;;;;;;;;;5093989;28;20220;-87
2021/11/06 01:59:17;;;;;;;13.53;12.07;;;;;;;;;;5093993;28;20185;-88
2021/11/06 02:02:04;;;;;;;17.57;12.50;;;;;;;;;;5093753;28;20295;-87
2021/11/06 02:04:49;;;;;;;16.40;12.90;;;;;;;;;;5093377;28;20283;-88
2021/11/06 02:07:35;;;;;;;16.63;11.73;;;;;;;;;;5093020;28;20189;-86
2021/11/06 02:10:20;;;;;;;17.33;12.70;;;;;;;;;;5093540;28;20319;-86
2021/11/06 02:13:05;;;;;;;15.20;12.00;;;;;;;;;;5092940;28;20641;-87
2021/11/06 02:15:51;;;;;;;14.20;12.20;;;;;;;;;;5093516;28;20188;-88
2021/11/06 02:18:37;;;;;;;19.43;14.30;;;;;;;;;;5093708;28;20271;-87
2021/11/06 02:21:24;;;;;;;28.47;14.90;;;;;;;;;;5092800;28;20188;-87
2021/11/06 02:24:09;;;;;;;38.33;14.83;;;;;;;;;;5092784;28;20223;-87
2021/11/06 02:26:55;;;;;;;35.20;14.73;;;;;;;;;;5093605;28;20180;-88
2021/11/06 02:29:40;;;;;;;18.77;14.63;;;;;;;;;;5093326;28;20181;-87
2021/11/06 02:32:25;;;;;;;34.17;15.43;;;;;;;;;;5092869;28;20227;-87
2021/11/06 02:35:11;;;;;;;22.90;15.40;;;;;;;;;;5092462;28;20185;-87
2021/11/06 02:37:58;;;;;;;19.53;15.30;;;;;;;;;;5092809;28;20299;-88
2021/11/06 02:40:43;;;;;;;29.23;14.33;;;;;;;;;;5092401;28;20255;-88
2021/11/06 02:43:28;;;;;;;20.83;14.73;;;;;;;;;;5092609;28;20212;-86
2021/11/06 02:46:13;;;;;;;66.80;15.43;;;;;;;;;;5092550;28;20197;-88
2021/11/06 02:48:58;;;;;;;32.60;14.03;;;;;;;;;;5092586;28;20188;-88
2021/11/06 02:51:43;;;;;;;75.10;15.97;;;;;;;;;;5091988;28;20233;-87
2021/11/06 02:54:29;;;;;;;64.20;17.10;;;;;;;;;;5092712;28;20537;-86
2021/11/06 02:57:14;;;;;;;57.57;15.17;;;;;;;;;;5092640;28;20277;-88
2021/11/06 03:00:00;;;;;;;110.20;15.90;;;;;;;;;;5092263;28;20184;-87
2021/11/06 03:02:45;;;;;;;57.43;14.67;;;;;;;;;;5092500;28;20204;-87
2021/11/06 03:05:30;;;;;;;61.63;16.63;;;;;;;;;;5092697;28;20177;-86
2021/11/06 03:08:15;;;;;;;42.17;14.70;;;;;;;;;;5092111;28;20197;-86
2021/11/06 03:11:01;;;;;;;47.40;14.00;;;;;;;;;;5092200;28;20181;-87
2021/11/06 03:13:47;;;;;;;66.50;14.67;;;;;;;;;;5092768;28;20173;-88
2021/11/06 03:16:32;;;;;;;43.00;14.10;;;;;;;;;;5092331;28;20184;-87
2021/11/06 03:19:17;;;;;;;68.37;13.73;;;;;;;;;;5091613;28;20557;-87
2021/11/06 03:22:02;;;;;;;55.53;14.17;;;;;;;;;;5092219;28;20659;-88
2021/11/06 03:24:47;;;;;;;93.23;14.17;;;;;;;;;;5091244;28;20216;-86
2021/11/06 03:27:33;;;;;;;27.53;13.60;;;;;;;;;;5092014;28;20201;-88
2021/11/06 03:30:19;;;;;;;44.27;12.93;;;;;;;;;;5091784;28;20660;-87
2021/11/06 03:33:04;;;;;;;39.77;12.77;;;;;;;;;;5092095;28;20197;-86
2021/11/06 03:35:49;;;;;;;53.23;13.80;;;;;;;;;;5093250;28;20715;-88
2021/11/06 03:38:34;;;;;;;43.10;12.47;;;;;;;;;;5096742;28;20231;-87
2021/11/06 03:41:20;;;;;;;134.90;14.93;;;;;;;;;;5095922;28;20679;-87
2021/11/06 03:44:06;;;;;;;50.07;13.47;;;;;;;;;;5095791;28;20608;-88
2021/11/06 03:46:52;;;;;;;59.80;11.97;;;;;;;;;;5096065;28;20299;-88
2021/11/06 03:49:37;;;;;;;63.00;12.57;;;;;;;;;;5096332;28;20196;-86
2021/11/06 03:52:22;;;;;;;69.60;14.37;;;;;;;;;;5095802;28;20181;-86
2021/11/06 03:55:09;;;;;;;111.93;15.23;;;;;;;;;;5095904;28;20181;-85
2021/11/06 03:57:55;;;;;;;34.37;12.57;;;;;;;;;;5095622;28;20181;-88
2021/11/06 04:00:41;;;;;;;15.83;12.03;;;;;;;;;;5095545;28;20763;-87
2021/11/06 04:03:27;;;;;;;83.70;13.60;;;;;;;;;;5096123;28;20220;-85
2021/11/06 04:06:13;;;;;;;47.53;13.13;;;;;;;;;;5095895;28;20557;-86
2021/11/06 04:08:58;;;;;;;23.33;11.73;;;;;;;;;;5096283;28;20193;-87
2021/11/06 04:11:43;;;;;;;52.07;12.30;;;;;;;;;;5095707;28;20181;-87
2021/11/06 04:14:28;;;;;;;81.20;14.87;;;;;;;;;;5095370;28;20409;-87
2021/11/06 04:17:14;;;;;;;97.53;13.50;;;;;;;;;;5095982;28;20240;-89
2021/11/06 04:20:00;;;;;;;70.67;13.43;;;;;;;;;;5095988;28;20193;-87
2021/11/06 04:22:45;;;;;;;81.67;12.20;;;;;;;;;;5096254;28;20185;-88
2021/11/06 04:25:30;;;;;;;26.97;11.77;;;;;;;;;;5095319;28;20213;-86
2021/11/06 04:28:15;;;;;;;12.37;11.07;;;;;;;;;;5095998;28;20269;-86
2021/11/06 04:31:00;;;;;;;50.27;11.60;;;;;;;;;;5095085;28;20188;-86
2021/11/06 04:33:46;;;;;;;31.70;10.53;;;;;;;;;;5094913;28;20201;-86
2021/11/06 04:36:31;;;;;;;36.93;9.50;;;;;;;;;;5094588;28;20181;-85
2021/11/06 04:39:16;;;;;;;182.70;12.27;;;;;;;;;;5094897;28;20185;-85
2021/11/06 04:42:02;;;;;;;32.47;10.20;;;;;;;;;;5095213;28;20311;-86
2021/11/06 04:44:47;;;;;;;16.17;8.17;;;;;;;;;;5094999;28;20315;-87
2021/11/06 04:47:32;;;;;;;33.83;8.60;;;;;;;;;;5094046;28;20557;-86
2021/11/06 04:50:18;;;;;;;90.97;9.37;;;;;;;;;;5094435;28;20225;-87
2021/11/06 04:53:03;;;;;;;33.97;8.77;;;;;;;;;;5094805;28;20182;-87
2021/11/06 04:55:48;;;;;;;49.20;9.57;;;;;;;;;;5094656;28;20270;-86
2021/11/06 04:58:33;;;;;;;52.57;9.07;;;;;;;;;;5094337;28;20600;-87
2021/11/06 05:01:18;;;;;;;18.83;9.30;;;;;;;;;;5094317;28;20584;-87
2021/11/06 05:04:03;;;;;;;107.67;11.30;;;;;;;;;;5093833;28;20312;-86
2021/11/06 05:06:50;;;;;;;39.00;9.87;;;;;;;;;;5094290;28;20184;-86
2021/11/06 05:09:35;;;;;;;52.93;10.70;;;;;;;;;;5094017;28;20216;-86
2021/11/06 05:12:20;;;;;;;148.67;13.03;;;;;;;;;;5094386;28;20267;-87
2021/11/06 05:15:05;;;;;;;41.77;10.20;;;;;;;;;;5094020;28;20561;-87
2021/11/06 05:17:52;;;;;;;34.53;9.53;;;;;;;;;;5094280;28;20189;-86
2021/11/06 05:20:38;;;;;;;46.60;9.57;;;;;;;;;;5094108;28;20181;-87
2021/11/06 05:23:25;;;;;;;104.67;11.60;;;;;;;;;;5094590;28;20185;-87
2021/11/06 05:26:10;;;;;;;116.37;11.57;;;;;;;;;;5093672;28;20259;-87
2021/11/06 05:28:55;;;;;;;66.83;10.37;;;;;;;;;;5094907;28;20577;-87
2021/11/06 05:31:41;;;;;;;54.60;11.00;;;;;;;;;;5093657;28;20664;-88
2021/11/06 05:34:25;;;;;;;46.53;9.70;;;;;;;;;;5094815;28;20299;-86
2021/11/06 05:37:10;;;;;;;45.53;10.10;;;;;;;;;;5094703;28;20315;-88
2021/11/06 05:39:57;;;;;;;66.73;10.40;;;;;;;;;;5094316;28;20185;-87
2021/11/06 05:42:42;;;;;;;168.07;12.13;;;;;;;;;;5094860;28;20207;-86
2021/11/06 05:45:28;;;;;;;74.10;10.73;;;;;;;;;;5093985;28;20335;-86
2021/11/06 05:48:13;;;;;;;25.03;9.60;;;;;;;;;;5093185;28;20193;-88
2021/11/06 05:50:58;;;;;;;64.37;9.93;;;;;;;;;;5093957;28;20228;-86
2021/11/06 05:53:43;;;;;;;24.50;9.17;;;;;;;;;;5094288;28;20659;-87
2021/11/06 05:56:29;;;;;;;57.67;9.83;;;;;;;;;;5093925;28;20184;-86
2021/11/06 05:59:14;;;;;;;35.63;11.10;;;;;;;;;;5093031;28;20228;-87
2021/11/06 06:01:59;;;;;;;70.47;10.53;;;;;;;;;;5094254;28;20201;-86
2021/11/06 06:04:45;;;;;;;97.00;11.50;;;;;;;;;;5094332;28;20204;-87
2021/11/06 06:07:31;;;;;;;86.03;12.67;;;;;;;;;;5093537;28;20263;-86
2021/11/06 06:10:16;;;;;;;97.43;11.37;;;;;;;;;;5094158;28;20192;-89
2021/11/06 06:13:03;;;;;;;94.27;12.83;;;;;;;;;;5095112;28;20189;-88
2021/11/06 06:15:48;;;;;;;69.20;11.13;;;;;;;;;;5094716;28;20190;-88
2021/11/06 06:18:34;;;;;;;57.47;13.17;;;;;;;;;;5096170;28;20185;-86
2021/11/06 06:21:18;;;;;;;65.07;12.20;;;;;;;;;;5096690;28;20625;-87
2021/11/06 06:24:04;;;;;;;57.10;12.17;;;;;;;;;;5096945;28;20570;-88
2021/11/06 06:26:50;;;;;;;39.37;12.20;;;;;;;;;;5097051;28;20186;-88
2021/11/06 06:29:36;;;;;;;31.63;12.43;;;;;;;;;;5096859;28;20258;-88
2021/11/06 06:32:21;;;;;;;57.60;12.13;;;;;;;;;;5095615;28;20182;-88
2021/11/06 06:35:07;;;;;;;108.97;11.33;;;;;;;;;;5096444;28;20544;-86
2021/11/06 06:37:52;;;;;;;22.80;11.07;;;;;;;;;;5096018;28;20656;-88
2021/11/06 06:40:37;;;;;;;34.07;11.43;;;;;;;;;;5096433;28;20838;-86
2021/11/06 06:43:22;;;;;;;99.70;13.17;;;;;;;;;;5095804;28;20245;-88
2021/11/06 06:46:09;;;;;;;61.20;10.80;;;;;;;;;;5095086;28;20282;-85
2021/11/06 06:48:55;;;;;;;69.53;11.77;;;;;;;;;;5094364;28;20579;-88
2021/11/06 06:51:40;;;;;;;30.97;10.40;;;;;;;;;;5095033;28;20225;-87
2021/11/06 06:54:25;;;;;;;63.87;13.00;;;;;;;;;;5094041;28;20184;-88
2021/11/06 06:57:10;;;;;;;37.17;13.20;;;;;;;;;;5094696;28;20189;-88
2021/11/06 06:59:55;;;;;;;65.27;12.83;;;;;;;;;;5095422;28;20665;-88
2021/11/06 07:02:42;;;;;;;24.77;10.97;;;;;;;;;;5096119;28;20204;-87
2021/11/06 07:05:27;;;;;;;14.57;10.30;;;;;;;;;;5094185;28;20580;-86
2021/11/06 07:08:12;;;;;;;31.33;10.57;;;;;;;;;;5092883;28;20311;-85
2021/11/06 07:10:57;;;;;;;22.30;10.83;;;;;;;;;;5096346;28;20635;-89
2021/11/06 07:13:42;;;;;;;16.37;10.50;;;;;;;;;;5095925;28;20259;-87
2021/11/06 07:16:27;;;;;;;33.17;11.97;;;;;;;;;;5094968;28;20188;-87
2021/11/06 07:19:14;;;;;;;37.47;11.23;;;;;;;;;;5095279;28;20201;-87
2021/11/06 07:22:00;;;;;;;42.30;12.63;;;;;;;;;;5096023;28;20260;-90
2021/11/06 07:24:45;;;;;;;22.17;13.07;;;;;;;;;;5093399;28;20193;-88
2021/11/06 07:27:31;;;;;;;28.80;12.80;;;;;;;;;;5094766;28;20189;-88
2021/11/06 07:30:17;;;;;;;37.30;12.73;;;;;;;;;;5096063;28;20185;-89
2021/11/06 07:33:02;;;;;;;23.87;13.00;;;;;;;;;;5095144;28;20292;-89
2021/11/06 07:35:49;;;;;;;27.40;13.00;;;;;;;;;;5097928;28;20733;-89
2021/11/06 07:38:34;;;;;;;32.20;13.43;;;;;;;;;;5100482;28;20216;-88
2021/11/06 07:41:19;;;;;;;27.93;13.93;;;;;;;;;;5098322;28;20313;-88
2021/11/06 07:44:04;;;;;;;18.77;13.60;;;;;;;;;;5097607;28;20684;-87
2021/11/06 07:46:49;;;;;;;17.97;12.47;;;;;;;;;;5095247;28;20201;-88
2021/11/06 07:49:34;;;;;;;25.83;13.50;;;;;;;;;;5095754;28;20177;-89
2021/11/06 07:52:21;;;;;;;17.23;12.57;;;;;;;;;;5096168;28;20248;-88
2021/11/06 07:55:06;;;;;;;28.57;13.17;;;;;;;;;;5093755;28;20189;-88
2021/11/06 07:57:52;;;;;;;36.73;13.07;;;;;;;;;;5092537;28;20181;-87
2021/11/06 08:00:37;;;;;;;80.43;14.50;;;;;;;;;;5092763;28;20232;-87
2021/11/06 08:03:22;;;;;;;17.83;12.37;;;;;;;;;;5092860;28;20243;-86
2021/11/06 08:06:08;;;;;;;25.77;12.27;;;;;;;;;;5092177;28;20220;-86
2021/11/06 08:08:54;;;;;;;96.67;13.37;;;;;;;;;;5093285;28;20190;-88
2021/11/06 08:11:39;;;;;;;34.63;13.57;;;;;;;;;;5093906;28;20197;-88
2021/11/06 08:14:24;;;;;;;44.10;13.67;;;;;;;;;;5092650;28;20224;-87
2021/11/06 08:17:09;;;;;;;27.13;12.63;;;;;;;;;;5094844;28;20197;-89
2021/11/06 08:19:56;;;;;;;42.07;12.67;;;;;;;;;;5096017;28;20197;-89
2021/11/06 08:22:41;;;;;;;19.40;13.43;;;;;;;;;;5097657;28;20189;-88
2021/11/06 08:25:28;;;;;;;27.53;14.63;;;;;;;;;;5096672;28;20204;-88
2021/11/06 08:28:17;;;;;;;25.07;15.27;;;;;;;;;;5097179;28;20197;-87
2021/11/06 08:31:02;;;;;;;20.13;14.77;;;;;;;;;;5096821;28;20259;-90
2021/11/06 08:33:48;;;;;;;18.17;14.70;;;;;;;;;;5099045;28;20193;-89
2021/11/06 08:36:33;;;;;;;19.53;15.07;;;;;;;;;;5098541;28;20259;-89
2021/11/06 08:39:19;;;;;;;159.57;15.67;;;;;;;;;;5100214;28;20193;-88
2021/11/06 08:42:05;;;;;;;79.90;15.00;;;;;;;;;;5105596;28;20232;-90
2021/11/06 08:44:50;;;;;;;140.37;16.17;;;;;;;;;;5101846;28;20619;-88
2021/11/06 08:47:36;;;;;;;24.97;15.27;;;;;;;;;;5103863;28;20251;-89
2021/11/06 08:50:23;;;;;;;19.70;14.57;;;;;;;;;;5099502;28;20223;-86
2021/11/06 08:53:08;;;;;;;20.53;14.07;;;;;;;;;;5098134;28;20196;-88
2021/11/06 08:55:53;;;;;;;16.87;11.80;;;;;;;;;;5097786;28;20695;-87
2021/11/06 08:58:40;;;;;;;18.73;13.13;;;;;;;;;;5101192;28;20235;-90
2021/11/06 09:01:25;;;;;;;16.37;12.53;;;;;;;;;;5097369;28;20487;-87
2021/11/06 09:04:12;;;;;;;20.03;12.03;;;;;;;;;;5099638;28;20202;-87
2021/11/06 09:06:57;;;;;;;20.30;12.27;;;;;;;;;;5076263;28;20312;-90
2021/11/06 09:09:43;;;;;;;16.37;12.07;;;;;;;;;;5076819;28;20716;-89
2021/11/06 09:12:28;;;;;;;23.23;12.30;;;;;;;;;;5077039;28;20769;-88
2021/11/06 09:15:15;;;;;;;14.33;11.53;;;;;;;;;;5077238;28;20185;-90
2021/11/06 09:18:00;;;;;;;16.17;12.57;;;;;;;;;;5085125;28;20220;-88
2021/11/06 09:20:45;;;;;;;15.80;12.03;;;;;;;;;;5076064;28;20268;-86
2021/11/06 09:23:31;;;;;;;25.63;12.63;;;;;;;;;;5076610;28;20711;-88
2021/11/06 09:26:16;;;;;;;21.03;13.57;;;;;;;;;;5075474;28;20616;-88
2021/11/06 09:29:01;;;;;;;16.90;13.50;;;;;;;;;;5075618;28;20655;-87
2021/11/06 09:31:47;;;;;;;19.37;12.23;;;;;;;;;;5074705;28;20654;-86
2021/11/06 09:34:33;;;;;;;20.13;12.53;;;;;;;;;;5073159;28;20557;-85
2021/11/06 09:37:18;;;;;;;16.73;12.33;;;;;;;;;;5075749;28;20233;-88
2021/11/06 09:40:06;;;;;;;29.90;12.70;;;;;;;;;;5096045;28;20292;-86
2021/11/06 09:42:52;;;;;;;19.40;12.53;;;;;;;;;;5095840;28;20189;-87
2021/11/06 09:45:37;;;;;;;15.80;12.30;;;;;;;;;;5076752;28;20313;-88
2021/11/06 09:48:24;;;;;;;18.73;12.43;;;;;;;;;;5080761;28;20186;-89
2021/11/06 09:51:10;;;;;;;28.30;12.40;;;;;;;;;;5085526;28;20256;-87
2021/11/06 09:53:56;;;;;;;16.53;12.60;;;;;;;;;;5078980;28;20646;-87
2021/11/06 09:56:41;;;;;;;23.00;13.43;;;;;;;;;;5095052;28;20312;-88
2021/11/06 09:59:27;;;;;;;17.43;12.53;;;;;;;;;;5087713;28;20200;-88
2021/11/06 10:02:12;;;;;;;17.43;12.90;;;;;;;;;;5075283;28;20210;-86
2021/11/06 10:04:59;;;;;;;16.43;12.27;;;;;;;;;;5074936;28;20197;-86
2021/11/06 10:07:44;;;;;;;15.37;11.90;;;;;;;;;;5076164;28;20210;-87
2021/11/06 10:10:36;;;;;;;14.33;11.63;;;;;;;;;;5074851;28;20728;-88
2021/11/06 10:13:22;;;;;;;16.10;12.23;;;;;;;;;;5074861;28;20190;-92
2021/11/06 10:16:07;;;;;;;17.33;12.57;;;;;;;;;;5075476;28;20547;-87
2021/11/06 10:19:03;;;;;;;17.97;12.13;;;;;;;;;;5079801;28;20608;-88
2021/11/06 10:21:50;;;;;;;18.47;12.40;;;;;;;;;;5075900;28;20201;-87
2021/11/06 10:24:41;;;;;;;18.03;12.60;;;;;;;;;;5074645;28;20189;-88
2021/11/06 10:27:27;;;;;;;15.27;12.27;;;;;;;;;;5075447;28;20252;-89
2021/11/06 10:30:15;;;;;;;16.23;12.87;;;;;;;;;;5075132;28;20692;-88
2021/11/06 10:33:03;;;;;;;17.67;12.80;;;;;;;;;;5075080;28;20193;-87
2021/11/06 10:35:49;;;;;;;16.90;12.70;;;;;;;;;;5073924;28;20258;-86
2021/11/06 10:38:36;;;;;;;19.83;12.77;;;;;;;;;;5075322;28;20193;-89
2021/11/06 10:41:27;;;;;;;19.63;13.40;;;;;;;;;;5074492;28;20739;-87
2021/11/06 10:44:15;;;;;;;18.50;12.27;;;;;;;;;;5093522;28;20324;-88
2021/11/06 10:47:00;;;;;;;16.30;12.60;;;;;;;;;;5089669;28;20682;-89
2021/11/06 10:49:47;;;;;;;17.10;12.00;;;;;;;;;;5081498;28;20601;-89
2021/11/06 10:52:45;;;;;;;18.67;11.70;;;;;;;;;;5075772;28;20198;-90
2021/11/06 10:55:35;;;;;;;15.37;11.73;;;;;;;;;;5075570;28;20197;-91
2021/11/06 10:58:22;;;;;;;17.00;12.03;;;;;;;;;;5077519;28;20228;-89
2021/11/06 11:01:08;;;;;;;15.73;12.57;;;;;;;;;;5074950;28;20186;-88
2021/11/06 11:03:59;;;;;;;16.30;12.30;;;;;;;;;;5076423;28;20260;-89
2021/11/06 11:06:46;;;;;;;16.53;12.17;;;;;;;;;;5075560;28;20567;-90
2021/11/06 11:09:37;;;;;;;15.67;11.27;;;;;;;;;;5075214;28;20273;-89
2021/11/06 11:12:23;;;;;;;14.53;11.37;;;;;;;;;;5088296;28;20201;-89
2021/11/06 11:15:08;;;;;;;16.87;12.67;;;;;;;;;;5095785;28;20185;-90
2021/11/06 11:17:55;;;;;;;15.43;12.13;;;;;;;;;;5094812;28;20223;-90
2021/11/06 11:20:41;;;;;;;15.87;12.13;;;;;;;;;;5083980;28;20202;-87
2021/11/06 11:23:26;;;;;;;16.30;12.37;;;;;;;;;;5073540;28;20552;-87
2021/11/06 11:26:12;;;;;;;18.80;12.13;;;;;;;;;;5075309;28;20563;-85
2021/11/06 11:29:00;;;;;;;15.10;12.37;;;;;;;;;;5093081;28;20583;-84
2021/11/06 11:31:46;;;;;;;14.67;11.77;;;;;;;;;;5091061;28;20664;-85
2021/11/06 11:34:31;;;;;;;15.10;11.60;;;;;;;;;;5070988;28;20557;-85
2021/11/06 11:37:16;;;;;;;14.27;11.17;;;;;;;;;;5071899;28;20550;-85
2021/11/06 11:40:02;;;;;;;13.37;11.30;;;;;;;;;;5072769;28;20647;-86
2021/11/06 11:42:53;;;;;;;13.50;11.37;;;;;;;;;;5082308;28;20200;-84
2021/11/06 11:45:46;;;;;;;17.53;12.13;;;;;;;;;;5092588;28;20497;-87
2021/11/06 11:48:32;;;;;;;15.47;12.00;;;;;;;;;;5092446;28;20354;-92
2021/11/06 11:51:28;;;;;;;14.13;11.67;;;;;;;;;;5092705;28;20224;-87
2021/11/06 11:54:14;;;;;;;15.47;12.53;;;;;;;;;;5093241;28;20339;-89
2021/11/06 11:57:13;;;;;;;17.30;12.83;;;;;;;;;;5094766;28;20258;-86
2021/11/06 11:59:58;;;;;;;14.00;11.97;;;;;;;;;;5095428;28;20188;-84
2021/11/06 12:02:51;;;;;;;12.57;11.27;;;;;;;;;;5096223;28;20209;-88
2021/11/06 12:05:37;;;;;;;14.97;12.13;;;;;;;;;;5083191;28;20197;-86
2021/11/06 12:08:30;;;;;;;26.47;14.97;;;;;;;;;;5095233;28;20568;-85
2021/11/06 12:11:21;;;;;;;17.00;13.43;;;;;;;;;;5094547;28;20661;-83
2021/11/06 12:14:17;;;;;;;17.83;12.97;;;;;;;;;;5094706;28;20759;-86
2021/11/06 12:17:03;;;;;;;16.97;12.70;;;;;;;;;;5094556;28;20194;-85
2021/11/06 12:19:51;;;;;;;15.37;12.77;;;;;;;;;;5075319;28;20209;-83
2021/11/06 12:22:36;;;;;;;14.30;12.13;;;;;;;;;;5074061;28;20543;-85
2021/11/06 12:25:22;;;;;;;15.23;11.93;;;;;;;;;;5079241;28;20586;-84
2021/11/06 12:28:19;;;;;;;15.07;12.07;;;;;;;;;;5075795;28;20209;-84
2021/11/06 12:31:25;;;;;;;13.23;11.83;;;;;;;;;;5074569;28;20650;-83
2021/11/06 12:34:11;;;;;;;12.73;11.43;;;;;;;;;;5074867;28;20684;-82
2021/11/06 12:36:57;;;;;;;14.73;11.97;;;;;;;;;;5075147;28;20689;-84
2021/11/06 12:39:47;;;;;;;16.03;12.77;;;;;;;;;;5091486;28;20643;-81
2021/11/06 12:42:32;;;;;;;15.47;12.00;;;;;;;;;;5095681;28;20193;-82
2021/11/06 12:45:27;;;;;;;13.63;12.23;;;;;;;;;;5095306;28;20274;-83
2021/11/06 12:48:14;;;;;;;13.53;11.73;;;;;;;;;;5094872;28;20200;-85
2021/11/06 12:51:05;;;;;;;13.53;11.47;;;;;;;;;;5095108;28;20216;-85
2021/11/06 12:53:53;;;;;;;13.50;11.77;;;;;;;;;;5095603;28;20247;-84
2021/11/06 12:56:41;;;;;;;12.83;11.57;;;;;;;;;;5094816;28;20181;-84
2021/11/06 12:59:26;;;;;;;13.13;11.73;;;;;;;;;;5094525;28;20207;-84
2021/11/06 13:02:12;;;;;;;12.77;11.47;;;;;;;;;;5095398;28;20200;-87
2021/11/06 13:04:58;;;;;;;12.83;11.30;;;;;;;;;;5095485;28;20652;-85
2021/11/06 13:07:43;;;;;;;12.67;11.37;;;;;;;;;;5095132;28;20282;-86
2021/11/06 13:10:29;;;;;;;14.27;11.83;;;;;;;;;;5095623;28;20553;-87
2021/11/06 13:13:16;;;;;;;16.10;12.13;;;;;;;;;;5094434;28;20563;-85
2021/11/06 13:16:03;;;;;;;13.07;11.50;;;;;;;;;;5094842;28;20201;-86
2021/11/06 13:18:48;;;;;;;14.30;12.77;;;;;;;;;;5093487;28;20231;-85
2021/11/06 13:21:42;;;;;;;14.07;12.53;;;;;;;;;;5094076;28;20259;-85
2021/11/06 13:24:46;;;;;;;13.20;11.80;;;;;;;;;;5093536;28;20185;-86
2021/11/06 13:27:44;;;;;;;15.10;13.50;;;;;;;;;;5093618;28;20229;-85
2021/11/06 13:30:31;;;;;;;14.47;12.97;;;;;;;;;;5093278;28;20236;-87
2021/11/06 13:33:21;;;;;;;14.53;13.00;;;;;;;;;;5093217;28;20315;-86
2021/11/06 13:36:08;;;;;;;16.07;13.60;;;;;;;;;;5093771;28;20320;-86
2021/11/06 13:38:54;;;;;;;15.67;13.80;;;;;;;;;;5093436;28;20200;-88
2021/11/06 13:41:39;;;;;;;16.77;13.00;;;;;;;;;;5093991;28;20586;-89
2021/11/06 13:44:26;;;;;;;15.97;14.30;;;;;;;;;;5095215;28;20270;-88
2021/11/06 13:47:12;;;;;;;20.23;14.57;;;;;;;;;;5096212;28;20212;-90
2021/11/06 13:49:58;;;;;;;15.43;13.30;;;;;;;;;;5095262;28;20213;-86
2021/11/06 13:52:44;;;;;;;19.97;14.13;;;;;;;;;;5096387;28;20193;-89
2021/11/06 13:55:29;;;;;;;18.90;15.03;;;;;;;;;;5078004;28;20188;-88
2021/11/06 13:58:23;;;;;;;18.93;14.63;;;;;;;;;;5094934;28;20201;-88
2021/11/06 14:01:10;;;;;;;19.80;15.33;;;;;;;;;;5095604;28;20656;-89
2021/11/06 14:03:56;;;;;;;18.67;15.27;;;;;;;;;;5097120;28;20205;-89
2021/11/06 14:06:41;;;;;;;17.63;13.67;;;;;;;;;;5098386;28;20193;-90
2021/11/06 14:09:26;;;;;;;17.30;14.53;;;;;;;;;;5096779;28;20208;-87
2021/11/06 14:12:11;;;;;;;18.00;14.30;;;;;;;;;;5095699;28;20193;-89
2021/11/06 14:14:58;;;;;;;16.67;14.40;;;;;;;;;;5095662;28;20232;-87
2021/11/06 14:17:46;;;;;;;17.67;14.70;;;;;;;;;;5094838;28;20216;-88
2021/11/06 14:20:33;;;;;;;18.97;14.33;;;;;;;;;;5093120;28;20604;-88
2021/11/06 14:23:29;;;;;;;18.30;14.63;;;;;;;;;;5094835;28;20223;-88
2021/11/06 14:26:15;;;;;;;18.20;14.30;;;;;;;;;;5095067;28;20344;-88
2021/11/06 14:29:06;;;;;;;22.87;14.83;;;;;;;;;;5094398;28;20578;-87
2021/11/06 14:31:52;;;;;;;18.50;14.70;;;;;;;;;;5096068;28;20197;-88
2021/11/06 14:34:38;;;;;;;15.77;13.93;;;;;;;;;;5095390;28;20205;-88
2021/11/06 14:37:24;;;;;;;17.67;13.97;;;;;;;;;;5096358;28;20304;-89
2021/11/06 14:40:11;;;;;;;21.07;14.70;;;;;;;;;;5094714;28;20185;-88
2021/11/06 14:43:08;;;;;;;18.27;14.70;;;;;;;;;;5096427;28;20487;-89
2021/11/06 14:45:56;;;;;;;15.53;13.40;;;;;;;;;;5095706;28;20193;-86
2021/11/06 14:48:50;;;;;;;16.83;14.23;;;;;;;;;;5095519;28;20744;-86
2021/11/06 14:51:51;;;;;;;20.47;14.33;;;;;;;;;;5095266;28;20224;-90
2021/11/06 14:54:47;;;;;;;17.20;14.43;;;;;;;;;;5095649;28;20238;-87
2021/11/06 14:57:32;;;;;;;19.10;14.07;;;;;;;;;;5095575;28;20224;-88
2021/11/06 15:00:20;;;;;;;18.13;14.73;;;;;;;;;;5095278;28;20177;-88
2021/11/06 15:03:08;;;;;;;19.87;14.53;;;;;;;;;;5093142;28;20219;-85
2021/11/06 15:05:53;;;;;;;19.70;15.87;;;;;;;;;;5094684;28;20209;-88
2021/11/06 15:08:42;;;;;;;20.57;15.53;;;;;;;;;;5094943;28;20216;-86
2021/11/06 15:11:27;;;;;;;21.30;16.30;;;;;;;;;;5094748;28;20306;-88
2021/11/06 15:14:12;;;;;;;19.07;16.13;;;;;;;;;;5094000;28;20653;-88
2021/11/06 15:16:58;;;;;;;22.17;16.43;;;;;;;;;;5095419;28;20236;-88
2021/11/06 15:19:45;;;;;;;21.60;17.13;;;;;;;;;;5096693;28;20188;-88
2021/11/06 15:22:31;;;;;;;21.27;16.47;;;;;;;;;;5097792;28;20239;-86
2021/11/06 15:25:17;;;;;;;22.33;17.63;;;;;;;;;;5095982;28;20196;-89
2021/11/06 15:28:03;;;;;;;22.97;16.80;;;;;;;;;;5095928;28;20235;-90
2021/11/06 15:30:50;;;;;;;22.43;17.27;;;;;;;;;;5095772;28;20185;-89
2021/11/06 15:33:35;;;;;;;24.23;17.50;;;;;;;;;;5096586;28;20188;-88
2021/11/06 15:36:20;;;;;;;22.80;16.70;;;;;;;;;;5096999;28;20200;-90
2021/11/06 15:39:05;;;;;;;24.77;18.30;;;;;;;;;;5095897;28;20664;-87
2021/11/06 15:41:51;;;;;;;26.10;18.50;;;;;;;;;;5095031;28;20236;-89
2021/11/06 15:44:36;;;;;;;27.13;19.67;;;;;;;;;;5096479;28;20173;-89
2021/11/06 15:47:22;;;;;;;25.17;19.17;;;;;;;;;;5094244;28;20263;-89
2021/11/06 15:50:08;;;;;;;27.97;19.90;;;;;;;;;;5094320;28;20350;-84
2021/11/06 15:52:54;;;;;;;29.70;20.37;;;;;;;;;;5091519;28;20188;-86
2021/11/06 15:55:39;;;;;;;33.47;21.13;;;;;;;;;;5091753;28;20188;-87
2021/11/06 15:58:26;;;;;;;32.50;22.33;;;;;;;;;;5092438;28;20182;-84
2021/11/06 16:01:11;;;;;;;32.07;21.30;;;;;;;;;;5091955;28;20185;-83
2021/11/06 16:03:56;;;;;;;36.03;23.40;;;;;;;;;;5091422;28;20197;-84
2021/11/06 16:06:42;;;;;;;30.43;20.23;;;;;;;;;;5091019;28;20661;-84